createdAt,value
2018-02-24T00:00:17.690Z,0
2018-02-24T00:01:17.392Z,0
2018-02-24T00:02:17.896Z,0
2018-02-24T00:03:17.078Z,0
2018-02-24T00:04:17.847Z,0
2018-02-24T00:05:17.311Z,0
2018-02-24T00:06:17.790Z,0
2018-02-24T00:07:17.507Z,0
2018-02-24T00:08:17.736Z,0
2018-02-24T00:09:16.914Z,0
2018-02-24T00:10:16.905Z,0
2018-02-24T00:11:17.398Z,0
2018-02-24T00:12:17.631Z,0
2018-02-24T00:13:17.093Z,0
2018-02-24T00:14:17.331Z,0
2018-02-24T00:15:17.295Z,0
2018-02-24T00:16:17.305Z,0
2018-02-24T00:17:17.238Z,0
2018-02-24T00:18:16.945Z,0
2018-02-24T00:19:16.923Z,0
2018-02-24T00:20:16.894Z,0
2018-02-24T00:21:16.863Z,0
2018-02-24T00:22:16.572Z,0
2018-02-24T00:23:16.815Z,0
2018-02-24T00:24:16.784Z,0
2018-02-24T00:25:17.024Z,0
2018-02-24T00:26:16.734Z,0
2018-02-24T00:27:17.022Z,0
2018-02-24T00:28:16.960Z,0
2018-02-24T00:29:17.235Z,0
2018-02-24T00:30:16.636Z,0
2018-02-24T00:31:16.610Z,0
2018-02-24T00:32:16.891Z,0
2018-02-24T00:33:17.075Z,0
2018-02-24T00:34:16.517Z,0
2018-02-24T00:35:16.497Z,0
2018-02-24T00:36:16.202Z,0
2018-02-24T00:37:16.180Z,0
2018-02-24T00:38:16.416Z,0
2018-02-24T00:39:16.652Z,0
2018-02-24T00:40:16.623Z,0
2018-02-24T00:41:16.338Z,0
2018-02-24T00:42:16.992Z,0
2018-02-24T00:43:16.281Z,0
2018-02-24T00:44:16.789Z,0
2018-02-24T00:45:16.493Z,0
2018-02-24T00:46:15.932Z,0
2018-02-24T00:47:16.716Z,0
2018-02-24T00:48:16.151Z,0
2018-02-24T00:49:16.652Z,0
2018-02-24T00:50:16.421Z,0
2018-02-24T00:51:16.100Z,0
2018-02-24T00:52:16.578Z,0
2018-02-24T00:53:16.304Z,0
2018-02-24T00:54:16.025Z,0
2018-02-24T00:55:16.236Z,0
2018-02-24T00:56:16.482Z,0
2018-02-24T00:57:16.445Z,0
2018-02-24T00:58:16.145Z,0
2018-02-24T00:59:15.590Z,0
2018-02-24T01:00:16.096Z,0
2018-02-24T01:01:16.076Z,0
2018-02-24T01:02:16.315Z,0
2018-02-24T01:03:15.491Z,0
2018-02-24T01:04:15.988Z,0
2018-02-24T01:05:15.983Z,0
2018-02-24T01:06:15.940Z,0
2018-02-24T01:07:15.916Z,0
2018-02-24T01:08:15.367Z,0
2018-02-24T01:09:15.595Z,0
2018-02-24T01:10:15.300Z,0
2018-02-24T01:11:15.533Z,0
2018-02-24T01:12:15.251Z,0
2018-02-24T01:13:15.217Z,0
2018-02-24T01:14:15.718Z,0
2018-02-24T01:15:15.488Z,0
2018-02-24T01:16:15.666Z,0
2018-02-24T01:17:15.114Z,0
2018-02-24T01:18:15.083Z,0
2018-02-24T01:19:15.854Z,0
2018-02-24T01:20:15.616Z,0
2018-02-24T01:21:15.596Z,0
2018-02-24T01:22:15.240Z,0
2018-02-24T01:23:15.482Z,0
2018-02-24T01:24:15.718Z,0
2018-02-24T01:25:15.170Z,0
2018-02-24T01:26:15.418Z,0
2018-02-24T01:27:15.113Z,0
2018-02-24T01:28:15.078Z,0
2018-02-24T01:29:15.065Z,0
2018-02-24T01:30:15.033Z,0
2018-02-24T01:31:15.539Z,0
2018-02-24T01:32:14.979Z,0
2018-02-24T01:33:15.587Z,0
2018-02-24T01:34:15.462Z,0
2018-02-24T01:35:14.914Z,0
2018-02-24T01:36:14.880Z,0
2018-02-24T01:37:14.843Z,0
2018-02-24T01:38:14.811Z,0
2018-02-24T01:39:14.792Z,0
2018-02-24T01:40:14.497Z,0
2018-02-24T01:41:15.006Z,0
2018-02-24T01:42:14.979Z,0
2018-02-24T01:43:14.682Z,0
2018-02-24T01:44:15.190Z,0
2018-02-24T01:45:14.916Z,0
2018-02-24T01:46:14.602Z,0
2018-02-24T01:47:14.836Z,0
2018-02-24T01:48:14.808Z,0
2018-02-24T01:49:14.785Z,0
2018-02-24T01:50:14.812Z,0
2018-02-24T01:51:14.199Z,0
2018-02-24T01:52:14.706Z,0
2018-02-24T01:53:14.148Z,0
2018-02-24T01:54:14.658Z,0
2018-02-24T01:55:14.906Z,0
2018-02-24T01:56:14.388Z,0
2018-02-24T01:57:14.578Z,0
2018-02-24T01:58:14.847Z,0
2018-02-24T01:59:14.560Z,0
2018-02-24T02:00:14.549Z,0
2018-02-24T02:01:14.486Z,0
2018-02-24T02:02:14.704Z,0
2018-02-24T02:03:14.410Z,0
2018-02-24T02:04:14.419Z,0
2018-02-24T02:05:14.147Z,0
2018-02-24T02:06:14.607Z,0
2018-02-24T02:07:14.318Z,0
2018-02-24T02:08:14.280Z,0
2018-02-24T02:09:13.985Z,0
2018-02-24T02:10:14.064Z,0
2018-02-24T02:11:13.927Z,0
2018-02-24T02:12:13.907Z,0
2018-02-24T02:13:13.882Z,0
2018-02-24T02:14:14.111Z,0
2018-02-24T02:15:13.826Z,0
2018-02-24T02:16:13.803Z,0
2018-02-24T02:17:14.042Z,0
2018-02-24T02:18:13.752Z,0
2018-02-24T02:19:13.454Z,0
2018-02-24T02:20:13.425Z,0
2018-02-24T02:21:13.929Z,0
2018-02-24T02:22:13.687Z,0
2018-02-24T02:23:13.875Z,0
2018-02-24T02:24:13.584Z,0
2018-02-24T02:25:13.558Z,0
2018-02-24T02:26:14.080Z,0
2018-02-24T02:27:13.774Z,0
2018-02-24T02:28:13.542Z,0
2018-02-24T02:29:13.480Z,0
2018-02-24T02:30:13.717Z,0
2018-02-24T02:31:13.662Z,0
2018-02-24T02:32:13.921Z,0
2018-02-24T02:33:13.610Z,0
2018-02-24T02:34:13.048Z,0
2018-02-24T02:35:13.835Z,0
2018-02-24T02:36:13.007Z,0
2018-02-24T02:37:13.785Z,0
2018-02-24T02:38:13.477Z,0
2018-02-24T02:39:13.459Z,0
2018-02-24T02:40:13.152Z,0
2018-02-24T02:41:13.392Z,0
2018-02-24T02:42:13.105Z,0
2018-02-24T02:43:13.335Z,0
2018-02-24T02:44:13.044Z,0
2018-02-24T02:45:13.026Z,0
2018-02-24T02:46:13.260Z,0
2018-02-24T02:47:12.963Z,0
2018-02-24T02:48:13.254Z,0
2018-02-24T02:49:12.916Z,0
2018-02-24T02:50:13.153Z,0
2018-02-24T02:51:13.123Z,0
2018-02-24T02:52:12.830Z,0
2018-02-24T02:53:12.859Z,0
2018-02-24T02:54:13.049Z,0
2018-02-24T02:55:12.754Z,0
2018-02-24T02:56:12.719Z,0
2018-02-24T02:57:13.232Z,0
2018-02-24T02:58:12.936Z,0
2018-02-24T02:59:12.908Z,0
2018-02-24T03:00:12.616Z,0
2018-02-24T03:01:12.855Z,0
2018-02-24T03:02:12.291Z,0
2018-02-24T03:03:12.264Z,0
2018-02-24T03:04:12.504Z,0
2018-02-24T03:05:12.752Z,0
2018-02-24T03:06:12.738Z,0
2018-02-24T03:07:12.421Z,0
2018-02-24T03:08:12.130Z,0
2018-02-24T03:09:12.367Z,0
2018-02-24T03:10:12.609Z,0
2018-02-24T03:11:12.580Z,0
2018-02-24T03:12:12.551Z,0
2018-02-24T03:13:12.528Z,0
2018-02-24T03:14:12.226Z,0
2018-02-24T03:15:12.208Z,0
2018-02-24T03:16:12.707Z,0
2018-02-24T03:17:12.162Z,0
2018-02-24T03:18:12.837Z,0
2018-02-24T03:19:12.359Z,0
2018-02-24T03:20:12.066Z,0
2018-02-24T03:21:12.578Z,0
2018-02-24T03:22:12.013Z,0
2018-02-24T03:23:12.522Z,0
2018-02-24T03:24:11.976Z,0
2018-02-24T03:25:12.465Z,0
2018-02-24T03:26:12.178Z,0
2018-02-24T03:27:11.883Z,0
2018-02-24T03:28:12.114Z,0
2018-02-24T03:29:12.370Z,0
2018-02-24T03:30:11.806Z,0
2018-02-24T03:31:12.046Z,0
2018-02-24T03:32:12.292Z,0
2018-02-24T03:33:12.243Z,0
2018-02-24T03:34:11.966Z,0
2018-02-24T03:35:11.663Z,0
2018-02-24T03:36:11.903Z,0
2018-02-24T03:37:11.607Z,0
2018-02-24T03:38:11.605Z,0
2018-02-24T03:39:11.560Z,0
2018-02-24T03:40:11.808Z,0
2018-02-24T03:41:11.770Z,0
2018-02-24T03:42:11.475Z,0
2018-02-24T03:43:11.720Z,0
2018-02-24T03:44:11.420Z,0
2018-02-24T03:45:11.670Z,0
2018-02-24T03:46:11.362Z,0
2018-02-24T03:47:11.640Z,0
2018-02-24T03:48:11.318Z,0
2018-02-24T03:49:11.026Z,0
2018-02-24T03:50:11.522Z,0
2018-02-24T03:51:11.233Z,0
2018-02-24T03:52:11.474Z,0
2018-02-24T03:53:10.916Z,0
2018-02-24T03:54:11.419Z,0
2018-02-24T03:55:11.649Z,0
2018-02-24T03:56:11.685Z,0
2018-02-24T03:57:11.332Z,0
2018-02-24T03:58:11.039Z,0
2018-02-24T03:59:11.288Z,0
2018-02-24T04:00:11.522Z,0
2018-02-24T04:01:11.245Z,0
2018-02-24T04:02:10.939Z,0
2018-02-24T04:03:11.437Z,0
2018-02-24T04:04:11.151Z,0
2018-02-24T04:05:11.386Z,0
2018-02-24T04:06:10.598Z,0
2018-02-24T04:07:11.334Z,0
2018-02-24T04:08:10.774Z,0
2018-02-24T04:09:10.750Z,0
2018-02-24T04:10:10.985Z,0
2018-02-24T04:11:10.695Z,0
2018-02-24T04:12:10.925Z,0
2018-02-24T04:13:10.374Z,0
2018-02-24T04:14:11.146Z,0
2018-02-24T04:15:11.119Z,0
2018-02-24T04:16:10.293Z,0
2018-02-24T04:17:10.532Z,0
2018-02-24T04:18:10.238Z,0
2018-02-24T04:19:10.740Z,0
2018-02-24T04:20:10.772Z,0
2018-02-24T04:21:10.689Z,0
2018-02-24T04:22:10.662Z,0
2018-02-24T04:23:10.366Z,0
2018-02-24T04:24:10.863Z,0
2018-02-24T04:25:10.046Z,0
2018-02-24T04:26:10.290Z,0
2018-02-24T04:27:10.262Z,0
2018-02-24T04:28:10.231Z,0
2018-02-24T04:29:10.474Z,0
2018-02-24T04:30:09.924Z,0
2018-02-24T04:31:10.159Z,0
2018-02-24T04:32:10.389Z,0
2018-02-24T04:33:10.625Z,0
2018-02-24T04:34:10.405Z,0
2018-02-24T04:35:10.039Z,0
2018-02-24T04:36:10.283Z,0
2018-02-24T04:37:10.261Z,0
2018-02-24T04:38:10.230Z,0
2018-02-24T04:39:10.196Z,0
2018-02-24T04:40:10.445Z,0
2018-02-24T04:41:10.405Z,0
2018-02-24T04:42:10.127Z,0
2018-02-24T04:43:09.910Z,0
2018-02-24T04:44:10.338Z,0
2018-02-24T04:45:10.046Z,0
2018-02-24T04:46:10.012Z,0
2018-02-24T04:47:09.771Z,0
2018-02-24T04:48:09.688Z,0
2018-02-24T04:49:09.942Z,0
2018-02-24T04:50:09.903Z,0
2018-02-24T04:51:09.886Z,0
2018-02-24T04:52:09.848Z,0
2018-02-24T04:53:09.826Z,0
2018-02-24T04:54:09.795Z,0
2018-02-24T04:55:09.501Z,0
2018-02-24T04:56:10.004Z,0
2018-02-24T04:57:09.452Z,0
2018-02-24T04:58:09.706Z,0
2018-02-24T04:59:09.936Z,0
2018-02-24T05:00:09.650Z,0
2018-02-24T05:01:09.614Z,0
2018-02-24T05:02:09.580Z,0
2018-02-24T05:03:09.547Z,0
2018-02-24T05:04:09.522Z,0
2018-02-24T05:05:09.760Z,0
2018-02-24T05:06:09.468Z,0
2018-02-24T05:07:09.715Z,0
2018-02-24T05:08:09.410Z,0
2018-02-24T05:09:09.127Z,0
2018-02-24T05:10:09.357Z,0
2018-02-24T05:11:09.330Z,0
2018-02-24T05:12:09.580Z,0
2018-02-24T05:13:09.013Z,0
2018-02-24T05:14:09.015Z,0
2018-02-24T05:15:08.960Z,0
2018-02-24T05:16:08.934Z,0
2018-02-24T05:17:09.441Z,0
2018-02-24T05:18:09.411Z,0
2018-02-24T05:19:09.378Z,0
2018-02-24T05:20:09.089Z,0
2018-02-24T05:21:09.064Z,0
2018-02-24T05:22:09.308Z,0
2018-02-24T05:23:09.268Z,0
2018-02-24T05:24:08.711Z,0
2018-02-24T05:25:08.955Z,0
2018-02-24T05:26:09.242Z,0
2018-02-24T05:27:08.900Z,0
2018-02-24T05:28:08.870Z,0
2018-02-24T05:29:08.839Z,0
2018-02-24T05:30:08.817Z,0
2018-02-24T05:31:08.788Z,0
2018-02-24T05:32:08.497Z,0
2018-02-24T05:33:08.468Z,0
2018-02-24T05:34:08.964Z,0
2018-02-24T05:35:08.686Z,0
2018-02-24T05:36:08.931Z,0
2018-02-24T05:37:08.891Z,0
2018-02-24T05:38:08.598Z,0
2018-02-24T05:39:08.833Z,0
2018-02-24T05:40:08.816Z,0
2018-02-24T05:41:07.999Z,0
2018-02-24T05:42:08.286Z,0
2018-02-24T05:43:08.456Z,0
2018-02-24T05:44:08.445Z,0
2018-02-24T05:45:08.143Z,0
2018-02-24T05:46:08.117Z,0
2018-02-24T05:47:08.092Z,0
2018-02-24T05:48:08.329Z,0
2018-02-24T05:49:08.033Z,0
2018-02-24T05:50:07.754Z,0
2018-02-24T05:51:07.710Z,0
2018-02-24T05:52:08.208Z,0
2018-02-24T05:53:08.190Z,0
2018-02-24T05:54:07.631Z,0
2018-02-24T05:55:08.128Z,4
2018-02-24T05:56:08.109Z,0
2018-02-24T05:57:08.083Z,0
2018-02-24T05:58:07.788Z,4
2018-02-24T05:59:08.021Z,0
2018-02-24T06:00:07.755Z,4
2018-02-24T06:01:07.439Z,4
2018-02-24T06:02:07.941Z,4
2018-02-24T06:03:07.912Z,8
2018-02-24T06:04:07.617Z,4
2018-02-24T06:05:08.140Z,8
2018-02-24T06:06:07.307Z,12
2018-02-24T06:07:08.072Z,12
2018-02-24T06:08:07.251Z,16
2018-02-24T06:09:08.029Z,16
2018-02-24T06:10:07.789Z,24
2018-02-24T06:11:07.703Z,24
2018-02-24T06:12:07.941Z,32
2018-02-24T06:13:07.644Z,40
2018-02-24T06:14:07.350Z,40
2018-02-24T06:15:07.055Z,48
2018-02-24T06:16:07.299Z,56
2018-02-24T06:17:07.528Z,64
2018-02-24T06:18:07.508Z,72
2018-02-24T06:19:06.950Z,84
2018-02-24T06:20:06.926Z,96
2018-02-24T06:21:07.691Z,108
2018-02-24T06:22:07.390Z,116
2018-02-24T06:23:07.364Z,132
2018-02-24T06:24:07.072Z,144
2018-02-24T06:25:07.317Z,160
2018-02-24T06:26:07.283Z,176
2018-02-24T06:27:07.260Z,192
2018-02-24T06:28:07.238Z,212
2018-02-24T06:29:07.470Z,232
2018-02-24T06:30:06.924Z,252
2018-02-24T06:31:07.411Z,268
2018-02-24T06:32:07.119Z,296
2018-02-24T06:33:06.827Z,316
2018-02-24T06:34:07.066Z,340
2018-02-24T06:35:07.044Z,360
2018-02-24T06:36:06.748Z,384
2018-02-24T06:37:06.725Z,412
2018-02-24T06:38:06.691Z,440
2018-02-24T06:39:07.212Z,468
2018-02-24T06:40:07.174Z,496
2018-02-24T06:41:07.140Z,520
2018-02-24T06:42:06.584Z,548
2018-02-24T06:43:07.088Z,576
2018-02-24T06:44:06.791Z,608
2018-02-24T06:45:07.035Z,640
2018-02-24T06:46:06.475Z,668
2018-02-24T06:47:06.973Z,696
2018-02-24T06:48:06.955Z,724
2018-02-24T06:49:06.659Z,748
2018-02-24T06:50:06.367Z,776
2018-02-24T06:51:06.604Z,804
2018-02-24T06:52:06.576Z,828
2018-02-24T06:53:06.286Z,856
2018-02-24T06:54:06.530Z,884
2018-02-24T06:55:06.765Z,912
2018-02-24T06:56:06.466Z,936
2018-02-24T06:57:06.486Z,964
2018-02-24T06:58:06.150Z,988
2018-02-24T06:59:06.414Z,1012
2018-02-24T07:00:06.360Z,1036
2018-02-24T07:01:06.598Z,1060
2018-02-24T07:02:06.318Z,1084
2018-02-24T07:03:06.293Z,1112
2018-02-24T07:04:05.981Z,1132
2018-02-24T07:05:06.227Z,1152
2018-02-24T07:06:06.200Z,1168
2018-02-24T07:07:05.908Z,1184
2018-02-24T07:08:05.878Z,1208
2018-02-24T07:09:06.118Z,1232
2018-02-24T07:10:05.552Z,1236
2018-02-24T07:11:06.373Z,1248
2018-02-24T07:12:06.026Z,1276
2018-02-24T07:13:06.018Z,1304
2018-02-24T07:14:05.976Z,1328
2018-02-24T07:15:05.689Z,1352
2018-02-24T07:16:05.920Z,1372
2018-02-24T07:17:05.635Z,1408
2018-02-24T07:18:06.129Z,1452
2018-02-24T07:19:06.049Z,1496
2018-02-24T07:20:05.549Z,1532
2018-02-24T07:21:05.520Z,1552
2018-02-24T07:22:05.497Z,1556
2018-02-24T07:23:05.201Z,1596
2018-02-24T07:24:05.722Z,1640
2018-02-24T07:25:05.413Z,1664
2018-02-24T07:26:05.972Z,1688
2018-02-24T07:27:05.360Z,1724
2018-02-24T07:28:05.330Z,1760
2018-02-24T07:29:05.571Z,1788
2018-02-24T07:30:05.544Z,1816
2018-02-24T07:31:04.997Z,1824
2018-02-24T07:32:04.967Z,1848
2018-02-24T07:33:05.463Z,1872
2018-02-24T07:34:05.437Z,1904
2018-02-24T07:35:05.675Z,1916
2018-02-24T07:36:05.392Z,1900
2018-02-24T07:37:05.350Z,1868
2018-02-24T07:38:05.061Z,1856
2018-02-24T07:39:05.297Z,1836
2018-02-24T07:40:05.573Z,1816
2018-02-24T07:41:05.272Z,1832
2018-02-24T07:42:04.953Z,1920
2018-02-24T07:43:04.927Z,2052
2018-02-24T07:44:05.167Z,2148
2018-02-24T07:45:05.135Z,2244
2018-02-24T07:46:05.108Z,2284
2018-02-24T07:47:05.356Z,2324
2018-02-24T07:48:04.797Z,2380
2018-02-24T07:49:05.310Z,2356
2018-02-24T07:50:04.744Z,2336
2018-02-24T07:51:05.248Z,2352
2018-02-24T07:52:05.214Z,2448
2018-02-24T07:53:04.662Z,2600
2018-02-24T07:54:04.633Z,2620
2018-02-24T07:55:04.610Z,2604
2018-02-24T07:56:05.117Z,2612
2018-02-24T07:57:04.570Z,2648
2018-02-24T07:58:04.830Z,2664
2018-02-24T07:59:04.520Z,2676
2018-02-24T08:00:04.767Z,2696
2018-02-24T08:01:04.743Z,2708
2018-02-24T08:02:04.463Z,2732
2018-02-24T08:03:04.681Z,2764
2018-02-24T08:04:04.377Z,2796
2018-02-24T08:05:04.357Z,2800
2018-02-24T08:06:04.863Z,2796
2018-02-24T08:07:04.290Z,2788
2018-02-24T08:08:04.542Z,2804
2018-02-24T08:09:04.342Z,2824
2018-02-24T08:10:04.482Z,2852
2018-02-24T08:11:04.478Z,2856
2018-02-24T08:12:04.425Z,2848
2018-02-24T08:13:04.401Z,2724
2018-02-24T08:14:04.376Z,2720
2018-02-24T08:15:04.361Z,2768
2018-02-24T08:16:04.322Z,2816
2018-02-24T08:17:04.310Z,2944
2018-02-24T08:18:04.269Z,3016
2018-02-24T08:19:03.974Z,3088
2018-02-24T08:20:04.219Z,3152
2018-02-24T08:21:03.928Z,3228
2018-02-24T08:22:03.906Z,3340
2018-02-24T08:23:04.401Z,3460
2018-02-24T08:24:03.848Z,3624
2018-02-24T08:25:04.349Z,3748
2018-02-24T08:26:04.061Z,3856
2018-02-24T08:27:04.036Z,5596
2018-02-24T08:28:04.015Z,9704
2018-02-24T08:29:03.723Z,10652
2018-02-24T08:30:03.692Z,9980
2018-02-24T08:31:04.214Z,7520
2018-02-24T08:32:03.379Z,5728
2018-02-24T08:33:03.886Z,6796
2018-02-24T08:34:04.123Z,9744
2018-02-24T08:35:03.831Z,13516
2018-02-24T08:36:03.547Z,11084
2018-02-24T08:37:03.517Z,7568
2018-02-24T08:38:03.232Z,6308
2018-02-24T08:39:03.770Z,5368
2018-02-24T08:40:03.446Z,4968
2018-02-24T08:41:03.693Z,6404
2018-02-24T08:42:03.662Z,10504
2018-02-24T08:43:03.383Z,15488
2018-02-24T08:44:03.622Z,16320
2018-02-24T08:45:03.599Z,17760
2018-02-24T08:46:03.582Z,16352
2018-02-24T08:47:03.297Z,15552
2018-02-24T08:48:03.265Z,15904
2018-02-24T08:49:03.247Z,14944
2018-02-24T08:50:03.755Z,13752
2018-02-24T08:51:03.472Z,14784
2018-02-24T08:52:03.444Z,14660
2018-02-24T08:53:03.430Z,18208
2018-02-24T08:54:03.734Z,19296
2018-02-24T08:55:03.651Z,18272
2018-02-24T08:56:03.104Z,17696
2018-02-24T08:57:03.342Z,15200
2018-02-24T08:58:03.223Z,13040
2018-02-24T08:59:03.309Z,11952
2018-02-24T09:00:03.023Z,11360
2018-02-24T09:01:03.543Z,14336
2018-02-24T09:02:03.542Z,17472
2018-02-24T09:03:02.970Z,17280
2018-02-24T09:04:02.680Z,18432
2018-02-24T09:05:03.463Z,18752
2018-02-24T09:06:03.445Z,15296
2018-02-24T09:07:03.434Z,12320
2018-02-24T09:08:03.145Z,14432
2018-02-24T09:09:02.587Z,12432
2018-02-24T09:10:02.849Z,11384
2018-02-24T09:11:03.083Z,16416
2018-02-24T09:12:02.817Z,20000
2018-02-24T09:13:03.332Z,20096
2018-02-24T09:14:03.032Z,17920
2018-02-24T09:15:02.817Z,18240
2018-02-24T09:16:03.041Z,17696
2018-02-24T09:17:02.746Z,16096
2018-02-24T09:18:02.698Z,14592
2018-02-24T09:19:02.966Z,11756
2018-02-24T09:20:02.924Z,15776
2018-02-24T09:21:02.918Z,13152
2018-02-24T09:22:02.912Z,11508
2018-02-24T09:23:02.612Z,16544
2018-02-24T09:24:03.123Z,21952
2018-02-24T09:25:03.120Z,19552
2018-02-24T09:26:02.851Z,13284
2018-02-24T09:27:02.556Z,9152
2018-02-24T09:28:03.058Z,6584
2018-02-24T09:29:02.241Z,6264
2018-02-24T09:30:02.747Z,7660
2018-02-24T09:31:02.478Z,10328
2018-02-24T09:32:02.726Z,12556
2018-02-24T09:33:02.699Z,11472
2018-02-24T09:34:02.949Z,13944
2018-02-24T09:35:02.678Z,13456
2018-02-24T09:36:02.651Z,14052
2018-02-24T09:37:02.630Z,11956
2018-02-24T09:38:02.354Z,14336
2018-02-24T09:39:02.326Z,14720
2018-02-24T09:40:02.870Z,9924
2018-02-24T09:41:02.557Z,7112
2018-02-24T09:42:02.533Z,7364
2018-02-24T09:43:02.515Z,8724
2018-02-24T09:44:02.491Z,19904
2018-02-24T09:45:02.481Z,27392
2018-02-24T09:46:02.718Z,25344
2018-02-24T09:47:02.440Z,15520
2018-02-24T09:48:02.685Z,6648
2018-02-24T09:49:02.410Z,10692
2018-02-24T09:50:02.405Z,23072
2018-02-24T09:51:02.633Z,26944
2018-02-24T09:52:02.345Z,26848
2018-02-24T09:53:02.329Z,27296
2018-02-24T09:54:02.566Z,23904
2018-02-24T09:55:02.022Z,20736
2018-02-24T09:56:02.325Z,19680
2018-02-24T09:57:01.989Z,18560
2018-02-24T09:58:02.236Z,20992
2018-02-24T09:59:02.493Z,22880
2018-02-24T10:00:02.197Z,25728
2018-02-24T10:01:01.929Z,15436
2018-02-24T10:02:01.927Z,7460
2018-02-24T10:03:01.627Z,7556
2018-02-24T10:04:02.130Z,6924
2018-02-24T10:05:02.374Z,9416
2018-02-24T10:06:01.848Z,15268
2018-02-24T10:07:02.349Z,23040
2018-02-24T10:08:01.793Z,31200
2018-02-24T10:09:02.044Z,21152
2018-02-24T10:10:02.028Z,10784
2018-02-24T10:11:01.788Z,6276
2018-02-24T10:12:01.982Z,6584
2018-02-24T10:13:01.964Z,7572
2018-02-24T10:14:02.208Z,11548
2018-02-24T10:15:01.991Z,20800
2018-02-24T10:16:01.915Z,22784
2018-02-24T10:17:01.885Z,15616
2018-02-24T10:18:02.136Z,20800
2018-02-24T10:19:01.697Z,23936
2018-02-24T10:20:01.566Z,25824
2018-02-24T10:21:01.549Z,27328
2018-02-24T10:22:01.831Z,25888
2018-02-24T10:23:01.803Z,27168
2018-02-24T10:24:01.798Z,30368
2018-02-24T10:25:02.270Z,26560
2018-02-24T10:26:01.999Z,22272
2018-02-24T10:27:01.439Z,20384
2018-02-24T10:28:01.695Z,16792
2018-02-24T10:29:01.677Z,11524
2018-02-24T10:30:01.700Z,13132
2018-02-24T10:31:01.115Z,14480
2018-02-24T10:32:01.097Z,13448
2018-02-24T10:33:01.870Z,15424
2018-02-24T10:34:01.639Z,13756
2018-02-24T10:35:01.572Z,13584
2018-02-24T10:36:01.291Z,14896
2018-02-24T10:37:01.323Z,17568
2018-02-24T10:38:01.786Z,19040
2018-02-24T10:39:00.972Z,19072
2018-02-24T10:40:01.216Z,21024
2018-02-24T10:41:01.471Z,19456
2018-02-24T10:42:01.720Z,18880
2018-02-24T10:43:01.164Z,23104
2018-02-24T10:44:01.156Z,23520
2018-02-24T10:45:01.129Z,28992
2018-02-24T10:46:01.113Z,32416
2018-02-24T10:47:01.411Z,20320
2018-02-24T10:48:01.337Z,18528
2018-02-24T10:49:01.056Z,17440
2018-02-24T10:50:01.575Z,18080
2018-02-24T10:51:01.017Z,17504
2018-02-24T10:52:01.005Z,24000
2018-02-24T10:53:01.261Z,23936
2018-02-24T10:54:00.974Z,20160
2018-02-24T10:55:01.223Z,21824
2018-02-24T10:56:00.942Z,19552
2018-02-24T10:57:00.935Z,12292
2018-02-24T10:58:01.435Z,16372
2018-02-24T10:59:01.159Z,20096
2018-02-24T11:00:00.873Z,26176
2018-02-24T11:01:00.598Z,34688
2018-02-24T11:02:01.098Z,39136
2018-02-24T11:03:00.600Z,31552
2018-02-24T11:04:00.803Z,24512
2018-02-24T11:05:01.053Z,23616
2018-02-24T11:06:00.504Z,21760
2018-02-24T11:07:01.017Z,18944
2018-02-24T11:08:01.275Z,22944
2018-02-24T11:09:00.985Z,20032
2018-02-24T11:10:00.974Z,22688
2018-02-24T11:11:00.691Z,21536
2018-02-24T11:12:01.211Z,23520
2018-02-24T11:13:00.669Z,26176
2018-02-24T11:14:00.913Z,25984
2018-02-24T11:15:00.902Z,22848
2018-02-24T11:16:00.891Z,31040
2018-02-24T11:17:00.584Z,31360
2018-02-24T11:18:00.841Z,32096
2018-02-24T11:19:01.031Z,20288
2018-02-24T11:20:01.070Z,14384
2018-02-24T11:21:00.808Z,22944
2018-02-24T11:22:01.043Z,32000
2018-02-24T11:23:00.819Z,38688
2018-02-24T11:24:00.789Z,45056
2018-02-24T11:25:00.468Z,42720
2018-02-24T11:26:00.454Z,37920
2018-02-24T11:27:00.436Z,37568
2018-02-24T11:28:00.681Z,37344
2018-02-24T11:29:00.462Z,34368
2018-02-24T11:30:00.972Z,28320
2018-02-24T11:31:00.374Z,27008
2018-02-24T11:32:00.632Z,25120
2018-02-24T11:33:00.399Z,23296
2018-02-24T11:34:00.903Z,30976
2018-02-24T11:35:00.326Z,37856
2018-02-24T11:36:00.577Z,27776
2018-02-24T11:37:00.828Z,40896
2018-02-24T11:38:00.022Z,9768
2018-02-24T11:39:00.532Z,38560
2018-02-24T11:40:00.779Z,40544
2018-02-24T11:41:00.240Z,33728
2018-02-24T11:42:00.493Z,33120
2018-02-24T11:43:00.750Z,19296
2018-02-24T11:44:00.852Z,20832
2018-02-24T11:44:59.921Z,23264
2018-02-24T11:46:00.432Z,13604
2018-02-24T11:47:00.686Z,33696
2018-02-24T11:48:00.410Z,37600
2018-02-24T11:49:00.434Z,40448
2018-02-24T11:50:00.399Z,39360
2018-02-24T11:51:00.158Z,41760
2018-02-24T11:52:00.626Z,36704
2018-02-24T11:53:00.617Z,33216
2018-02-24T11:54:00.057Z,37568
2018-02-24T11:55:00.579Z,55808
2018-02-24T11:56:00.296Z,63968
2018-02-24T11:57:00.285Z,13860
2018-02-24T11:58:00.005Z,45248
2018-02-24T11:59:00.278Z,40832
2018-02-24T12:00:00.244Z,22560
2018-02-24T12:01:00.230Z,31936
2018-02-24T12:02:00.220Z,25184
2018-02-24T12:02:59.950Z,24864
2018-02-24T12:04:00.245Z,27840
2018-02-24T12:04:59.918Z,12456
2018-02-24T12:06:00.182Z,26656
2018-02-24T12:07:00.160Z,26368
2018-02-24T12:07:59.880Z,29888
2018-02-24T12:09:00.140Z,49504
2018-02-24T12:09:59.855Z,49664
2018-02-24T12:11:00.106Z,51360
2018-02-24T12:12:00.359Z,47904
2018-02-24T12:13:00.093Z,33120
2018-02-24T12:14:00.071Z,53632
2018-02-24T12:15:00.054Z,57824
2018-02-24T12:16:00.043Z,58976
2018-02-24T12:17:00.058Z,30528
2018-02-24T12:17:59.498Z,58624
2018-02-24T12:19:00.324Z,28800
2018-02-24T12:20:00.263Z,33600
2018-02-24T12:20:59.988Z,52384
2018-02-24T12:21:59.974Z,48096
2018-02-24T12:22:59.427Z,45600
2018-02-24T12:23:59.952Z,44224
2018-02-24T12:24:59.945Z,44288
2018-02-24T12:25:59.669Z,44800
2018-02-24T12:27:00.208Z,48416
2018-02-24T12:28:00.177Z,48320
2018-02-24T12:28:59.641Z,49184
2018-02-24T12:30:00.171Z,49216
2018-02-24T12:30:59.891Z,52736
2018-02-24T12:32:00.141Z,57088
2018-02-24T12:33:00.148Z,58880
2018-02-24T12:33:59.602Z,59872
2018-02-24T12:34:59.583Z,56928
2018-02-24T12:35:59.314Z,48096
2018-02-24T12:37:00.113Z,51744
2018-02-24T12:37:59.832Z,47680
2018-02-24T12:38:59.818Z,14020
2018-02-24T12:39:59.812Z,15184
2018-02-24T12:41:00.065Z,16724
2018-02-24T12:41:59.532Z,58624
2018-02-24T12:42:59.784Z,60256
2018-02-24T12:43:59.511Z,60224
2018-02-24T12:44:59.287Z,36704
2018-02-24T12:45:59.766Z,15696
2018-02-24T12:47:00.021Z,16428
2018-02-24T12:48:00.024Z,46496
2018-02-24T12:48:59.205Z,23744
2018-02-24T12:49:59.470Z,19936
2018-02-24T12:50:59.530Z,55968
2018-02-24T12:51:59.446Z,11320
2018-02-24T12:52:59.706Z,22656
2018-02-24T12:53:59.153Z,12020
2018-02-24T12:54:59.726Z,9544
2018-02-24T12:55:59.665Z,9784
2018-02-24T12:56:59.704Z,10964
2018-02-24T12:57:59.381Z,11860
2018-02-24T12:58:59.637Z,13976
2018-02-24T12:59:59.360Z,18752
2018-02-24T13:00:59.873Z,13228
2018-02-24T13:01:59.857Z,12828
2018-02-24T13:02:59.322Z,14136
2018-02-24T13:03:59.624Z,12268
2018-02-24T13:04:59.561Z,14192
2018-02-24T13:05:59.545Z,24000
2018-02-24T13:06:59.256Z,13688
2018-02-24T13:07:59.244Z,35040
2018-02-24T13:08:59.507Z,19584
2018-02-24T13:09:59.480Z,15008
2018-02-24T13:10:59.735Z,28864
2018-02-24T13:11:59.184Z,52160
2018-02-24T13:12:59.431Z,17472
2018-02-24T13:13:59.815Z,19520
2018-02-24T13:14:59.139Z,14740
2018-02-24T13:15:59.395Z,14900
2018-02-24T13:16:59.115Z,13204
2018-02-24T13:17:59.638Z,12236
2018-02-24T13:18:59.557Z,11392
2018-02-24T13:19:59.368Z,9872
2018-02-24T13:20:59.057Z,10924
2018-02-24T13:21:59.301Z,12236
2018-02-24T13:22:59.020Z,11160
2018-02-24T13:23:59.015Z,10536
2018-02-24T13:24:59.276Z,10760
2018-02-24T13:25:59.507Z,10456
2018-02-24T13:26:59.231Z,9612
2018-02-24T13:27:59.210Z,9416
2018-02-24T13:28:58.926Z,34208
2018-02-24T13:29:59.176Z,7848
2018-02-24T13:30:59.421Z,7000
2018-02-24T13:31:58.873Z,7796
2018-02-24T13:32:59.132Z,6520
2018-02-24T13:33:59.116Z,6096
2018-02-24T13:34:58.830Z,5512
2018-02-24T13:35:59.071Z,5756
2018-02-24T13:36:59.316Z,5248
2018-02-24T13:37:58.506Z,5756
2018-02-24T13:38:59.028Z,6172
2018-02-24T13:39:58.783Z,7304
2018-02-24T13:40:58.989Z,7392
2018-02-24T13:41:59.292Z,6996
2018-02-24T13:42:58.468Z,7008
2018-02-24T13:43:58.930Z,6720
2018-02-24T13:44:59.183Z,6492
2018-02-24T13:45:58.629Z,8112
2018-02-24T13:46:58.880Z,9876
2018-02-24T13:47:58.853Z,10372